Time;durP1;ratioP1;P1;durP2;ratioP2;P2;SDS_P1;SDS_P2;PMS_P1;PMS_P2;Temp;Humidity;BMP_temperature;BMP_pressure;BME280_temperature;BME280_humidity;BME280_pressure;Samples;Min_cycle;Max_cycle;Signal;HPM_P1;HPM_P2
2022/04/29 00:03:08;;;;;;;32.40;21.30;;;;;;;5.71;72.12;100931.20;215719;1277;142037;-68
2022/04/29 00:08:12;;;;;;;26.40;17.90;;;;;;;5.61;72.20;100930.22;215600;1274;142233;-68
2022/04/29 00:13:16;;;;;;;36.40;23.70;;;;;;;5.54;72.50;100924.46;214753;1274;140040;-66
2022/04/29 00:18:19;;;;;;;38.60;25.40;;;;;;;5.49;72.61;100927.21;214604;1274;230359;-67
2022/04/29 00:23:23;;;;;;;38.20;25.00;;;;;;;5.54;73.20;100923.96;215263;1274;140444;-67
2022/04/29 00:28:26;;;;;;;41.10;28.50;;;;;;;5.62;73.39;100927.34;214543;1275;140671;-67
2022/04/29 00:33:29;;;;;;;50.90;32.70;;;;;;;5.63;73.15;100926.84;213766;1274;141894;-69
2022/04/29 00:38:32;;;;;;;62.50;42.00;;;;;;;5.62;73.44;100927.18;214518;1274;141413;-67
2022/04/29 00:43:35;;;;;;;56.50;35.40;;;;;;;5.62;73.43;100924.52;214544;1274;140600;-65
2022/04/29 00:48:38;;;;;;;57.60;35.50;;;;;;;5.58;73.19;100919.26;214179;1274;152172;-65
2022/04/29 00:53:42;;;;;;;35.30;23.20;;;;;;;5.39;72.91;100917.73;213221;1274;141646;-64
2022/04/29 00:58:52;;;;;;;39.30;24.80;;;;;;;5.21;72.87;100913.48;214235;1274;141713;-64
2022/04/29 01:03:58;;;;;;;36.80;24.30;;;;;;;5.07;72.87;100914.88;214231;1274;141210;-65
2022/04/29 01:09:02;;;;;;;43.80;26.40;;;;;;;4.94;73.04;100915.70;213463;1274;141827;-71
2022/04/29 01:14:05;;;;;;;38.10;24.90;;;;;;;4.86;73.25;100913.80;213144;1274;141786;-65
2022/04/29 01:19:09;;;;;;;38.00;25.20;;;;;;;4.80;73.51;100914.36;213417;1274;143323;-66
2022/04/29 01:24:13;;;;;;;34.50;26.80;;;;;;;4.71;73.54;100914.38;214381;1274;141434;-68
2022/04/29 01:29:18;;;;;;;42.90;25.80;;;;;;;4.65;73.70;100915.40;214062;1274;143270;-69
2022/04/29 01:34:21;;;;;;;41.70;30.70;;;;;;;4.62;73.74;100908.23;215490;1274;140543;-68
2022/04/29 01:39:25;;;;;;;34.40;25.60;;;;;;;4.61;73.85;100902.34;215438;1273;140810;-68
2022/04/29 01:44:27;;;;;;;41.20;28.70;;;;;;;4.58;73.87;100901.73;213701;1274;141257;-64
2022/04/29 01:49:29;;;;;;;36.50;25.30;;;;;;;4.54;73.92;100898.00;216158;1274;140131;-69
2022/04/29 01:54:32;;;;;;;26.80;20.70;;;;;;;4.46;73.83;100901.02;215132;1274;141111;-68
2022/04/29 01:59:35;;;;;;;34.80;22.70;;;;;;;4.41;73.76;100896.79;215339;1274;140632;-70
2022/04/29 02:04:38;;;;;;;33.20;20.90;;;;;;;4.27;73.61;100900.69;215843;1274;140933;-69
2022/04/29 02:09:41;;;;;;;28.40;19.90;;;;;;;4.14;73.73;100899.37;214331;1274;164101;-67
2022/04/29 02:14:45;;;;;;;31.80;21.50;;;;;;;4.00;73.93;100900.64;214125;1274;141888;-67
2022/04/29 02:19:49;;;;;;;31.30;23.20;;;;;;;3.95;74.41;100903.02;214754;1274;142700;-66
2022/04/29 02:24:52;;;;;;;33.40;25.00;;;;;;;3.94;74.37;100891.69;214092;1274;140966;-65
2022/04/29 02:29:55;;;;;;;41.40;29.70;;;;;;;3.93;74.71;100897.55;214165;1274;140447;-66
2022/04/29 02:35:00;;;;;;;37.40;24.90;;;;;;;3.99;75.27;100895.48;214670;1274;140822;-66
2022/04/29 02:40:05;;;;;;;35.20;23.20;;;;;;;3.98;74.77;100889.30;214770;1274;140313;-66
2022/04/29 02:45:08;;;;;;;42.50;23.40;;;;;;;3.83;74.65;100888.77;213881;1274;140841;-67
2022/04/29 02:50:11;;;;;;;35.40;25.30;;;;;;;3.72;75.07;100890.52;213975;1274;140076;-66
2022/04/29 02:55:14;;;;;;;35.50;24.60;;;;;;;3.71;75.05;100883.48;213878;1274;141112;-66
2022/04/29 03:00:17;;;;;;;38.80;28.20;;;;;;;3.64;74.79;100874.81;213811;1274;140690;-64
2022/04/29 03:05:20;;;;;;;38.60;26.60;;;;;;;3.56;75.09;100880.96;214928;1274;213458;-66
2022/04/29 03:10:24;;;;;;;33.50;23.90;;;;;;;3.56;75.30;100878.27;214530;1274;144394;-66
2022/04/29 03:15:27;;;;;;;32.30;23.40;;;;;;;3.54;75.00;100873.41;213866;1274;140938;-66
2022/04/29 03:20:34;;;;;;;34.50;24.80;;;;;;;3.49;75.19;100881.83;213950;1274;140333;-64
2022/04/29 03:25:37;;;;;;;32.50;20.80;;;;;;;3.40;75.36;100882.23;213828;1274;141404;-65
2022/04/29 03:30:39;;;;;;;25.60;19.70;;;;;;;3.31;75.57;100882.85;214985;1274;140807;-66
2022/04/29 03:35:47;;;;;;;34.60;24.00;;;;;;;3.27;75.89;100879.56;215400;1274;222293;-68
2022/04/29 03:40:57;;;;;;;29.00;23.10;;;;;;;3.33;76.15;100878.96;215787;1274;142014;-67
2022/04/29 03:46:01;;;;;;;34.70;22.40;;;;;;;3.45;75.74;100877.20;215808;1274;141650;-68
2022/04/29 03:51:05;;;;;;;31.50;22.70;;;;;;;3.56;75.86;100876.58;215234;1274;140587;-66
2022/04/29 03:56:07;;;;;;;25.50;21.80;;;;;;;3.93;76.06;100873.83;215922;1274;140697;-66
2022/04/29 04:01:11;;;;;;;29.20;19.20;;;;;;;4.27;75.70;100871.35;215923;1274;141104;-66
2022/04/29 04:11:37;;;;;;;31.30;21.00;;;;;;;5.05;75.45;100880.92;213280;1274;141022;-65
2022/04/29 04:16:39;;;;;;;32.30;21.80;;;;;;;5.12;74.76;100889.11;214109;1274;140958;-65
2022/04/29 04:21:42;;;;;;;26.30;22.90;;;;;;;5.17;74.85;100891.57;214325;1274;140376;-67
2022/04/29 04:26:44;;;;;;;35.70;22.60;;;;;;;5.36;74.46;100899.39;213146;1274;140721;-65
2022/04/29 04:31:47;;;;;;;42.50;29.30;;;;;;;5.67;74.67;100897.98;213470;1274;140853;-67
2022/04/29 04:36:56;;;;;;;45.10;31.40;;;;;;;6.03;74.25;100904.14;214501;1274;141073;-66
2022/04/29 04:41:59;;;;;;;39.10;27.90;;;;;;;6.18;73.91;100901.90;213845;1274;141364;-66
2022/04/29 04:47:02;;;;;;;38.50;24.20;;;;;;;6.21;74.16;100904.08;213995;1274;140363;-67
2022/04/29 04:52:06;;;;;;;27.40;22.30;;;;;;;6.27;73.75;100903.61;214452;1274;141998;-67
2022/04/29 04:57:10;;;;;;;31.20;23.00;;;;;;;6.25;73.81;100905.61;214203;1274;141538;-66
2022/04/29 05:02:13;;;;;;;30.90;26.70;;;;;;;6.30;74.15;100911.00;214900;1274;141000;-66
2022/04/29 05:07:17;;;;;;;48.20;31.50;;;;;;;6.42;74.43;100913.15;213831;1273;141617;-66
2022/04/29 05:12:20;;;;;;;39.00;29.40;;;;;;;7.20;74.21;100918.52;214258;1274;141280;-66
2022/04/29 05:17:24;;;;;;;33.50;28.20;;;;;;;8.41;73.29;100922.45;213467;1274;142579;-66
2022/04/29 05:22:30;;;;;;;36.30;26.10;;;;;;;9.21;72.94;100924.12;214533;1274;142859;-69
2022/04/29 05:27:33;;;;;;;40.10;26.20;;;;;;;10.78;71.17;100925.17;214504;1274;141996;-67
2022/04/29 05:32:38;;;;;;;29.30;23.80;;;;;;;13.92;67.85;100919.36;215979;1274;142425;-68
2022/04/29 05:37:41;;;;;;;31.40;22.40;;;;;;;15.12;66.43;100918.81;216151;1274;141050;-68
2022/04/29 05:42:44;;;;;;;31.40;22.40;;;;;;;14.77;64.78;100926.72;215545;1274;140529;-66
2022/04/29 05:47:47;;;;;;;28.80;22.90;;;;;;;15.33;63.51;100925.13;216132;1274;141201;-67
2022/04/29 05:52:51;;;;;;;29.40;21.60;;;;;;;15.37;62.69;100931.95;216202;1272;140472;-67
2022/04/29 05:57:54;;;;;;;23.50;18.10;;;;;;;14.72;62.20;100938.41;215633;1274;141621;-66
2022/04/29 06:02:57;;;;;;;24.80;18.60;;;;;;;14.32;61.78;100938.08;215432;1274;140454;-66
2022/04/29 06:08:00;;;;;;;24.30;15.60;;;;;;;13.79;61.75;100940.86;215697;1274;141055;-67
2022/04/29 06:13:03;;;;;;;21.10;15.90;;;;;;;13.33;61.74;100947.31;214515;1274;143120;-65
2022/04/29 06:18:06;;;;;;;22.30;15.80;;;;;;;13.02;61.81;100955.15;214488;1274;143991;-65
2022/04/29 06:23:10;;;;;;;22.20;15.50;;;;;;;12.75;62.05;100956.42;214914;1274;140191;-67
2022/04/29 06:28:14;;;;;;;24.90;15.50;;;;;;;12.54;62.27;100959.81;213970;1274;139984;-68
2022/04/29 06:33:18;;;;;;;15.30;11.70;;;;;;;12.49;62.44;100964.80;214698;1274;140299;-66
2022/04/29 06:38:21;;;;;;;18.00;10.90;;;;;;;12.47;62.24;100965.63;213284;1274;143256;-66
2022/04/29 06:43:25;;;;;;;18.40;11.50;;;;;;;12.40;62.12;100965.55;214627;1276;141739;-68
2022/04/29 06:48:29;;;;;;;13.60;9.20;;;;;;;12.50;61.62;100966.84;214359;1274;140754;-67
2022/04/29 06:53:31;;;;;;;9.80;8.80;;;;;;;12.60;61.25;100966.52;214702;1274;140019;-66
2022/04/29 06:58:35;;;;;;;16.10;11.10;;;;;;;13.46;60.85;100966.46;213829;1274;140413;-67
2022/04/29 07:03:39;;;;;;;10.80;9.00;;;;;;;15.34;59.86;100966.56;214602;1274;140315;-67
2022/04/29 07:08:44;;;;;;;11.00;9.30;;;;;;;16.95;57.75;100969.10;213473;1274;141262;-67
2022/04/29 07:13:47;;;;;;;15.60;9.50;;;;;;;17.72;56.23;100968.23;213783;1274;153321;-67
2022/04/29 07:18:50;;;;;;;10.00;9.00;;;;;;;18.08;54.76;100973.71;213977;1274;141336;-66
2022/04/29 07:23:53;;;;;;;13.40;7.90;;;;;;;18.25;54.12;100975.66;214870;1274;141562;-67
2022/04/29 07:28:56;;;;;;;8.10;7.20;;;;;;;18.49;52.97;100979.13;214300;1273;141952;-66
2022/04/29 07:34:01;;;;;;;7.70;6.90;;;;;;;18.55;51.99;100982.97;214621;1274;140969;-67
2022/04/29 07:44:31;;;;;;;10.60;6.10;;;;;;;18.78;50.97;100981.33;216060;1274;141556;-69
2022/04/29 07:49:34;;;;;;;6.30;5.20;;;;;;;18.76;50.22;100979.53;215784;1274;587871;-69
2022/04/29 07:54:37;;;;;;;6.30;4.80;;;;;;;18.83;49.46;100970.80;215938;1274;139837;-68
2022/04/29 07:59:40;;;;;;;6.50;5.30;;;;;;;18.97;49.41;100974.98;215524;1274;141321;-66
2022/04/29 08:04:44;;;;;;;6.90;6.10;;;;;;;18.94;48.21;100973.67;215079;1274;140700;-67
2022/04/29 08:09:47;;;;;;;6.50;5.70;;;;;;;18.69;47.77;100977.55;214311;1276;139231;-68
2022/04/29 08:14:52;;;;;;;5.70;5.10;;;;;;;18.57;47.54;100976.57;214762;1275;141157;-68
2022/04/29 08:19:56;;;;;;;7.50;6.70;;;;;;;18.52;47.31;100969.98;214900;1276;139587;-67
2022/04/29 08:25:00;;;;;;;9.70;5.60;;;;;;;18.22;47.17;100966.20;214133;1276;141183;-68
2022/04/29 08:30:06;;;;;;;6.70;5.50;;;;;;;18.17;47.17;100968.08;214740;1274;140943;-66
2022/04/29 08:35:10;;;;;;;9.40;5.60;;;;;;;18.04;46.96;100960.29;214318;1274;140498;-68
2022/04/29 08:40:13;;;;;;;6.60;4.40;;;;;;;18.11;46.82;100956.63;214196;1274;139704;-69
2022/04/29 08:45:18;;;;;;;5.90;4.90;;;;;;;18.24;46.61;100949.04;214451;1274;139766;-68
2022/04/29 08:50:21;;;;;;;3.70;3.30;;;;;;;18.21;45.91;100948.80;214888;1274;139531;-67
2022/04/29 09:00:48;;;;;;;3.90;3.50;;;;;;;18.21;44.79;100949.61;214128;1273;140652;-68
2022/04/29 09:05:53;;;;;;;4.40;3.40;;;;;;;18.36;44.92;100946.67;213322;1274;141457;-67
2022/04/29 09:11:00;;;;;;;6.50;3.90;;;;;;;18.54;44.27;100944.88;214250;1274;141538;-66
2022/04/29 09:16:06;;;;;;;;;;;;;;;18.54;43.41;100947.42;213997;1274;140795;-68
2022/04/29 09:21:18;;;;;;;4.40;3.70;;;;;;;18.51;43.31;100942.30;215754;1274;127145;-65
2022/04/29 09:26:22;;;;;;;6.60;3.60;;;;;;;18.30;42.11;100937.70;214228;1274;141473;-68
2022/04/29 09:31:25;;;;;;;5.70;3.40;;;;;;;18.25;42.14;100939.71;214419;1274;141146;-69
2022/04/29 09:36:50;;;;;;;6.50;3.50;;;;;;;18.20;41.60;100932.66;215397;1274;141663;-67
2022/04/29 09:41:55;;;;;;;6.70;3.10;;;;;;;18.20;41.54;100931.58;215943;1274;139997;-68
2022/04/29 09:47:13;;;;;;;3.20;2.60;;;;;;;18.29;41.18;100933.17;216174;1274;140497;-68
2022/04/29 09:52:19;;;;;;;2.80;2.60;;;;;;;18.39;40.59;100933.83;215304;1274;140553;-67
2022/04/29 09:57:26;;;;;;;4.10;3.50;;;;;;;18.14;39.38;100928.76;215488;1274;141204;-69
2022/04/29 10:02:29;;;;;;;2.10;1.90;;;;;;;18.21;40.04;100929.86;215449;1274;140929;-68
2022/04/29 10:07:34;;;;;;;2.10;1.90;;;;;;;18.32;39.07;100927.96;215661;1272;140689;-67
2022/04/29 10:12:38;;;;;;;4.80;2.60;;;;;;;18.36;38.69;100926.25;213721;1274;140684;-68
2022/04/29 10:23:08;;;;;;;1.80;1.60;;;;;;;18.48;38.08;100926.09;214945;1274;140425;-67
2022/04/29 10:28:17;;;;;;;3.30;2.20;;;;;;;18.52;37.76;100916.63;214746;1274;141323;-67
2022/04/29 10:33:23;;;;;;;2.80;1.70;;;;;;;18.39;37.38;100909.21;213997;1274;140147;-68
2022/04/29 10:38:31;;;;;;;2.60;2.40;;;;;;;18.51;38.50;100908.95;214148;1274;140323;-68
2022/04/29 10:43:38;;;;;;;2.20;2.00;;;;;;;18.67;37.76;100912.21;214733;1274;140894;-67
2022/04/29 10:48:42;;;;;;;2.10;1.80;;;;;;;18.62;37.09;100906.69;214026;1274;142159;-67
2022/04/29 10:53:47;;;;;;;7.10;2.10;;;;;;;18.74;37.68;100895.09;213449;1274;140662;-69
2022/04/29 10:58:50;;;;;;;4.30;2.50;;;;;;;18.91;37.48;100894.92;213717;1274;142825;-69
2022/04/29 11:03:54;;;;;;;3.80;2.50;;;;;;;18.74;36.82;100899.03;214148;1274;140667;-68
2022/04/29 11:08:57;;;;;;;2.60;2.40;;;;;;;18.61;36.66;100893.53;213871;1274;141402;-67
2022/04/29 11:14:01;;;;;;;2.70;1.90;;;;;;;18.55;37.07;100895.15;213282;1274;140049;-66
2022/04/29 11:19:20;;;;;;;3.20;1.60;;;;;;;18.61;36.56;100890.14;214261;1274;140988;-68
2022/04/29 11:24:42;;;;;;;2.70;1.60;;;;;;;18.45;36.31;100879.57;213592;1276;140353;-68
2022/04/29 11:29:48;;;;;;;3.30;1.90;;;;;;;18.44;36.54;100884.91;214547;1274;140504;-68
2022/04/29 11:34:55;;;;;;;1.60;1.50;;;;;;;18.36;35.62;100877.29;215282;1274;141784;-68
2022/04/29 11:40:06;;;;;;;1.60;1.50;;;;;;;18.22;35.57;100872.48;215932;1274;140218;-68
2022/04/29 11:45:10;;;;;;;2.30;1.40;;;;;;;18.18;35.34;100880.77;215957;1274;139796;-69
2022/04/29 11:50:13;;;;;;;2.30;1.90;;;;;;;18.37;35.59;100876.59;216090;1274;139492;-68
2022/04/29 11:55:18;;;;;;;2.20;1.70;;;;;;;18.52;35.51;100872.87;215641;1274;140972;-68
2022/04/29 12:00:26;;;;;;;2.10;2.00;;;;;;;18.57;35.25;100861.67;216105;1274;140551;-67
2022/04/29 12:05:31;;;;;;;1.00;1.00;;;;;;;18.56;34.56;100862.82;216007;1274;141058;-65
2022/04/29 12:10:35;;;;;;;2.10;1.60;;;;;;;18.24;34.22;100858.26;214520;1274;140433;-68
2022/04/29 12:15:42;;;;;;;5.10;2.10;;;;;;;18.18;34.55;100859.94;214781;1274;141341;-67
2022/04/29 12:20:58;;;;;;;2.50;1.50;;;;;;;18.22;34.44;100856.84;214055;1274;140860;-69
2022/04/29 12:26:02;;;;;;;1.60;1.50;;;;;;;18.21;34.50;100853.27;214811;1274;140540;-68
2022/04/29 12:37:04;;;;;;;1.80;1.70;;;;;;;17.71;33.39;100834.21;213334;1275;140375;-66
2022/04/29 12:42:10;;;;;;;2.10;1.60;;;;;;;17.60;33.83;100828.20;213976;1274;140912;-67
2022/04/29 12:47:25;;;;;;;3.50;1.80;;;;;;;17.62;34.14;100828.43;213433;1274;140244;-67
2022/04/29 12:52:49;;;;;;;2.30;1.20;;;;;;;17.80;34.51;100824.04;214481;1274;139139;-68
2022/04/29 12:58:06;;;;;;;2.70;1.60;;;;;;;17.79;33.80;100817.65;213709;1274;139711;-66
2022/04/29 13:03:25;;;;;;;1.90;1.40;;;;;;;17.76;33.95;100808.95;214858;1274;141417;-68
2022/04/29 13:08:32;;;;;;;1.00;1.00;;;;;;;17.68;34.03;100805.00;214942;1274;140587;-68
2022/04/29 13:13:35;;;;;;;1.30;1.20;;;;;;;17.68;33.90;100798.60;213831;1275;143029;-67
2022/04/29 13:18:39;;;;;;;1.80;1.70;;;;;;;17.80;34.40;100801.44;213706;1275;141203;-69
2022/04/29 13:23:43;;;;;;;2.20;1.20;;;;;;;17.90;34.30;100796.02;215364;1274;140991;-69
2022/04/29 13:28:47;;;;;;;3.60;2.00;;;;;;;17.87;34.09;100788.49;214144;1274;140652;-65
2022/04/29 13:33:49;;;;;;;2.50;1.30;;;;;;;17.85;33.86;100784.39;215145;1274;141623;-67
2022/04/29 13:38:52;;;;;;;3.30;1.80;;;;;;;17.75;33.64;100779.34;215667;1274;142210;-68
2022/04/29 13:43:55;;;;;;;1.30;1.20;;;;;;;17.74;33.95;100772.27;215903;1274;140406;-70
2022/04/29 13:49:16;;;;;;;7.30;1.60;;;;;;;17.69;33.86;100774.60;216171;1274;140046;-68
2022/04/29 13:54:18;;;;;;;2.20;1.10;;;;;;;17.70;33.76;100769.33;215439;1274;141169;-69
2022/04/29 13:59:23;;;;;;;2.30;1.40;;;;;;;17.67;33.56;100761.79;215390;1274;140625;-66
2022/04/29 14:04:28;;;;;;;1.50;1.30;;;;;;;17.62;33.74;100760.97;214689;1274;141115;-65
2022/04/29 14:09:31;;;;;;;2.20;2.00;;;;;;;17.59;33.80;100759.48;215090;1274;140693;-65
2022/04/29 14:14:34;;;;;;;3.20;2.30;;;;;;;17.40;34.02;100758.88;212810;1274;140178;-68
2022/04/29 14:19:37;;;;;;;5.70;2.20;;;;;;;17.34;34.20;100753.77;213698;1274;140152;-65
2022/04/29 14:24:41;;;;;;;2.10;1.90;;;;;;;17.43;34.72;100757.00;213935;1274;140798;-64
2022/04/29 14:29:44;;;;;;;3.30;1.20;;;;;;;17.49;34.74;100746.93;213711;1274;152411;-68
2022/04/29 14:34:49;;;;;;;2.00;1.90;;;;;;;17.43;34.72;100746.98;213681;1274;141370;-66
2022/04/29 14:39:51;;;;;;;3.60;2.30;;;;;;;17.30;35.10;100744.70;213325;1274;141438;-65
2022/04/29 14:44:54;;;;;;;6.00;2.70;;;;;;;17.21;35.37;100744.92;213214;1274;141329;-65
2022/04/29 14:49:57;;;;;;;2.40;2.00;;;;;;;17.20;35.55;100744.70;213883;1274;141556;-65
2022/04/29 14:55:00;;;;;;;2.50;2.20;;;;;;;17.13;35.72;100742.05;213348;1274;142653;-63
2022/04/29 15:00:05;;;;;;;2.80;2.50;;;;;;;16.99;35.33;100737.05;213575;1274;141248;-64
2022/04/29 15:05:09;;;;;;;4.60;3.00;;;;;;;16.86;35.68;100738.30;214378;1274;251062;-64
2022/04/29 15:15:37;;;;;;;5.90;2.60;;;;;;;16.76;36.17;100731.46;213987;1274;139711;-64
2022/04/29 15:20:40;;;;;;;2.60;2.20;;;;;;;16.74;36.12;100726.22;215197;1274;140812;-63
2022/04/29 15:25:43;;;;;;;2.90;2.60;;;;;;;16.66;36.15;100722.60;214293;1274;142651;-66
2022/04/29 15:30:48;;;;;;;5.80;2.50;;;;;;;16.65;36.30;100716.19;214239;1274;140659;-66
2022/04/29 15:35:52;;;;;;;3.00;2.30;;;;;;;16.67;36.21;100713.03;215975;1274;143658;-65
2022/04/29 15:40:57;;;;;;;3.90;2.60;;;;;;;16.54;36.07;100716.35;215563;1274;141255;-65
2022/04/29 15:46:00;;;;;;;2.30;2.10;;;;;;;16.40;36.20;100707.89;216102;1274;141056;-65
2022/04/29 15:51:07;;;;;;;2.90;2.10;;;;;;;16.34;36.55;100709.46;215097;1274;141037;-65
2022/04/29 15:56:13;;;;;;;5.70;2.60;;;;;;;16.27;36.43;100709.31;213767;1274;142040;-65
2022/04/29 16:01:16;;;;;;;4.50;2.50;;;;;;;16.20;36.57;100710.90;215016;1274;142139;-65
2022/04/29 16:06:20;;;;;;;3.70;2.00;;;;;;;16.15;36.67;100710.02;213611;1274;142406;-64
2022/04/29 16:11:22;;;;;;;3.20;2.10;;;;;;;16.07;36.62;100710.48;213023;1276;140424;-64
2022/04/29 16:16:25;;;;;;;8.70;3.40;;;;;;;15.96;36.48;100709.15;214188;1275;141089;-67
2022/04/29 16:21:29;;;;;;;3.70;3.10;;;;;;;15.81;36.38;100708.77;213222;1275;151095;-65
2022/04/29 16:26:33;;;;;;;5.90;2.00;;;;;;;15.66;36.52;100712.29;213201;1275;140556;-64
2022/04/29 16:31:38;;;;;;;2.50;2.30;;;;;;;15.55;36.60;100712.11;214314;1274;140610;-65
2022/04/29 16:36:42;;;;;;;3.30;1.70;;;;;;;15.49;36.93;100713.98;213575;1274;142200;-64
2022/04/29 16:41:45;;;;;;;3.60;2.50;;;;;;;15.37;37.03;100715.86;214149;1273;143084;-63
2022/04/29 16:46:48;;;;;;;7.10;2.30;;;;;;;15.26;37.34;100716.30;213199;1275;142459;-64
2022/04/29 16:51:51;;;;;;;2.40;2.10;;;;;;;15.11;37.41;100713.56;214270;1274;140492;-66
2022/04/29 17:02:15;;;;;;;1.60;1.50;;;;;;;14.88;37.44;100720.92;214153;1274;142166;-66
2022/04/29 17:07:18;;;;;;;5.00;1.70;;;;;;;14.74;37.42;100723.69;214233;1274;141514;-67
2022/04/29 17:12:21;;;;;;;3.40;1.80;;;;;;;14.64;37.63;100726.02;215073;1274;141710;-66
2022/04/29 17:17:24;;;;;;;2.80;1.60;;;;;;;14.53;37.89;100724.61;213777;1274;143342;-65
2022/04/29 17:22:30;;;;;;;2.30;1.60;;;;;;;14.36;37.97;100726.00;215989;1274;142792;-66
2022/04/29 17:27:32;;;;;;;4.10;1.40;;;;;;;14.21;38.19;100728.92;215877;1274;141206;-64
2022/04/29 17:32:38;;;;;;;2.60;1.60;;;;;;;14.06;38.51;100730.29;215913;1274;140999;-65
2022/04/29 17:37:41;;;;;;;3.70;1.60;;;;;;;13.91;39.14;100730.01;215953;1274;141548;-64
2022/04/29 17:42:45;;;;;;;4.90;1.50;;;;;;;13.77;39.49;100731.81;215881;1274;141197;-67
2022/04/29 17:47:50;;;;;;;4.70;2.30;;;;;;;13.60;39.85;100734.36;215522;1274;141592;-65
2022/04/29 17:52:56;;;;;;;2.40;2.20;;;;;;;13.40;40.15;100738.88;214575;1274;141020;-64
2022/04/29 17:58:04;;;;;;;3.00;2.50;;;;;;;13.16;39.98;100742.52;214890;1274;141461;-65
2022/04/29 18:03:07;;;;;;;2.00;1.60;;;;;;;12.89;40.07;100745.13;213428;1274;142455;-64
2022/04/29 18:08:10;;;;;;;5.40;1.30;;;;;;;12.56;41.77;100748.52;214617;1274;140125;-67
2022/04/29 18:13:15;;;;;;;3.70;1.00;;;;;;;12.14;42.53;100759.83;213994;1274;140578;-66
2022/04/29 18:18:18;;;;;;;2.60;1.60;;;;;;;11.83;43.18;100762.88;213821;1274;140503;-65
2022/04/29 18:23:21;;;;;;;1.30;1.20;;;;;;;11.58;42.91;100769.83;214211;1274;139979;-65
2022/04/29 18:28:25;;;;;;;1.40;1.10;;;;;;;11.32;43.79;100775.73;214134;1274;141014;-65
2022/04/29 18:33:29;;;;;;;4.60;1.50;;;;;;;11.01;44.70;100777.70;214144;1276;228896;-65
2022/04/29 18:38:32;;;;;;;1.80;1.70;;;;;;;10.76;45.58;100778.00;213877;1275;140404;-65
2022/04/29 18:43:35;;;;;;;0.90;0.90;;;;;;;10.51;45.81;100780.98;213538;1275;140775;-64
2022/04/29 18:48:39;;;;;;;2.20;2.00;;;;;;;10.25;46.71;100785.38;213686;1276;140615;-64
2022/04/29 18:53:44;;;;;;;2.00;1.10;;;;;;;10.00;47.38;100784.30;213128;1275;141689;-63
2022/04/29 18:58:49;;;;;;;2.00;1.70;;;;;;;9.74;48.72;100786.58;214433;1274;140932;-64
2022/04/29 19:03:53;;;;;;;4.80;2.20;;;;;;;9.54;49.41;100790.48;213528;1276;139426;-64
2022/04/29 19:08:58;;;;;;;2.00;1.70;;;;;;;9.38;49.56;100795.26;213573;1274;139673;-66
2022/04/29 19:14:03;;;;;;;5.00;2.30;;;;;;;9.17;49.73;100790.73;214170;1274;140875;-67
2022/04/29 19:19:07;;;;;;;16.00;1.90;;;;;;;8.99;50.26;100792.38;215494;1274;139085;-65
2022/04/29 19:24:12;;;;;;;2.80;1.50;;;;;;;8.66;51.41;100792.71;215332;1274;140096;-64
2022/04/29 19:29:15;;;;;;;3.40;2.20;;;;;;;8.41;52.23;100790.31;215527;1274;141892;-64
2022/04/29 19:34:21;;;;;;;5.10;3.10;;;;;;;8.25;52.78;100783.92;215923;1274;139567;-67
2022/04/29 19:39:27;;;;;;;3.20;1.90;;;;;;;8.17;53.23;100781.13;216077;1274;139748;-65
2022/04/29 19:44:31;;;;;;;4.60;2.70;;;;;;;8.03;53.61;100778.66;215787;1276;140112;-65
2022/04/29 19:49:38;;;;;;;5.20;4.00;;;;;;;7.88;54.47;100779.08;214876;1276;647674;-65
2022/04/29 19:54:43;;;;;;;6.20;4.60;;;;;;;7.73;54.72;100771.34;214715;1274;141343;-66
2022/04/29 19:59:50;;;;;;;8.70;5.00;;;;;;;7.50;54.83;100772.81;214845;1274;142078;-64
2022/04/29 20:04:53;;;;;;;7.00;5.30;;;;;;;7.40;55.71;100776.53;214753;1273;140479;-63
2022/04/29 20:09:58;;;;;;;15.30;8.90;;;;;;;7.33;56.50;100779.00;214994;1274;141927;-64
2022/04/29 20:15:01;;;;;;;13.60;9.50;;;;;;;7.27;56.29;100780.73;213488;1274;140334;-64
2022/04/29 20:20:06;;;;;;;14.90;8.10;;;;;;;7.13;56.55;100777.75;214939;1274;141084;-67
2022/04/29 20:25:11;;;;;;;11.40;4.30;;;;;;;6.94;57.03;100777.63;213278;1274;139442;-64
2022/04/29 20:30:21;;;;;;;6.40;4.60;;;;;;;6.74;57.99;100784.34;213716;1274;140328;-65
2022/04/29 20:35:25;;;;;;;11.10;5.20;;;;;;;6.54;57.80;100786.68;213174;1274;139339;-64
2022/04/29 20:45:49;;;;;;;5.70;4.20;;;;;;;6.24;59.61;100783.99;214428;1274;139196;-65
2022/04/29 20:50:53;;;;;;;9.20;5.20;;;;;;;6.11;59.78;100791.33;213873;1275;140011;-64
2022/04/29 20:55:56;;;;;;;10.20;5.40;;;;;;;5.95;60.33;100794.95;214439;1274;139702;-65
2022/04/29 21:01:01;;;;;;;15.20;7.70;;;;;;;5.85;60.83;100791.59;214983;1274;139831;-64
2022/04/29 21:06:08;;;;;;;5.50;3.90;;;;;;;5.67;61.20;100784.20;214529;1274;140572;-64
2022/04/29 21:11:11;;;;;;;4.10;3.70;;;;;;;5.53;61.61;100787.45;214217;1274;140034;-68
2022/04/29 21:16:18;;;;;;;10.10;8.00;;;;;;;5.48;61.90;100784.00;213947;1274;139565;-64
2022/04/29 21:21:21;;;;;;;15.90;8.30;;;;;;;5.41;61.81;100791.38;214985;1274;140753;-64
2022/04/29 21:26:25;;;;;;;14.30;8.10;;;;;;;5.38;62.24;100794.50;215923;1274;140705;-66
2022/04/29 21:31:28;;;;;;;19.40;9.60;;;;;;;5.39;62.52;100791.19;216197;1274;151442;-66
2022/04/29 21:36:31;;;;;;;14.30;9.00;;;;;;;5.34;62.44;100794.55;215688;1274;140496;-66
2022/04/29 21:41:36;;;;;;;18.30;9.00;;;;;;;5.27;62.79;100796.30;215559;1274;140321;-65
2022/04/29 21:46:39;;;;;;;22.40;10.80;;;;;;;5.13;62.86;100797.55;215734;1274;140792;-65
2022/04/29 21:51:42;;;;;;;19.20;10.30;;;;;;;4.93;63.09;100791.86;213799;1274;140591;-65
2022/04/29 21:56:45;;;;;;;14.00;8.80;;;;;;;4.72;63.51;100786.50;213290;1274;141804;-65
2022/04/29 22:01:50;;;;;;;15.60;8.80;;;;;;;4.59;63.91;100784.80;214529;1274;141589;-63
2022/04/29 22:06:57;;;;;;;22.80;12.30;;;;;;;4.49;64.50;100782.20;214783;1274;140905;-66
2022/04/29 22:12:00;;;;;;;14.20;8.20;;;;;;;4.49;64.87;100785.44;213986;1274;140975;-61
2022/04/29 22:17:03;;;;;;;13.80;6.70;;;;;;;4.45;64.99;100784.78;214759;1274;141226;-65
2022/04/29 22:22:07;;;;;;;16.90;9.30;;;;;;;4.34;64.89;100778.85;213394;1274;141297;-65
2022/04/29 22:27:10;;;;;;;16.50;9.40;;;;;;;4.33;65.40;100778.66;214607;1272;140852;-65
2022/04/29 22:32:13;;;;;;;20.50;12.60;;;;;;;4.32;65.49;100775.77;213480;1274;141325;-64
2022/04/29 22:37:16;;;;;;;27.10;15.70;;;;;;;4.34;65.77;100777.87;213947;1274;143059;-67
2022/04/29 22:42:19;;;;;;;22.60;12.60;;;;;;;4.31;65.80;100778.91;213746;1274;142019;-65
2022/04/29 22:47:21;;;;;;;13.30;8.50;;;;;;;4.14;65.72;100776.86;213765;1274;142241;-65
2022/04/29 22:52:25;;;;;;;9.10;7.90;;;;;;;3.88;65.60;100778.31;213762;1274;141236;-65
2022/04/29 22:57:29;;;;;;;12.30;8.30;;;;;;;3.68;66.00;100782.04;213509;1274;140493;-64
2022/04/29 23:02:33;;;;;;;24.70;11.20;;;;;;;3.61;66.50;100772.98;213390;1274;140335;-64
2022/04/29 23:07:39;;;;;;;33.00;17.30;;;;;;;3.56;66.47;100773.73;213524;1275;141987;-63
2022/04/29 23:12:44;;;;;;;24.50;16.20;;;;;;;3.47;66.75;100772.23;214587;1274;141011;-65
2022/04/29 23:23:13;;;;;;;38.10;18.80;;;;;;;3.26;67.31;100764.08;216082;1274;142367;-67
2022/04/29 23:28:15;;;;;;;22.40;13.50;;;;;;;3.24;67.74;100767.14;215677;1274;141360;-65
2022/04/29 23:33:19;;;;;;;31.50;16.20;;;;;;;3.27;67.58;100762.42;215445;1274;143222;-64
2022/04/29 23:38:22;;;;;;;46.80;16.60;;;;;;;3.30;68.14;100762.41;215025;1275;141666;-66
2022/04/29 23:43:25;;;;;;;28.40;18.00;;;;;;;3.35;68.22;100763.14;213481;1274;143931;-64
2022/04/29 23:48:30;;;;;;;31.30;16.70;;;;;;;3.34;68.14;100752.86;214821;1274;141128;-65